sensor_id;sensor_type;location;lat;lon;timestamp;pressure;altitude;pressure_sealevel;temperature;humidity
20930;BME280;21895;47.072;15.132;2023-04-01T00:01:13;95472.00;;;9.23;77.24
20930;BME280;21895;47.072;15.132;2023-04-01T00:03:40;95464.00;;;9.12;77.72
20930;BME280;21895;47.072;15.132;2023-04-01T00:06:08;95467.00;;;9.06;78.06
20930;BME280;21895;47.072;15.132;2023-04-01T00:08:35;95459.00;;;9.04;78.27
20930;BME280;21895;47.072;15.132;2023-04-01T00:11:02;95454.00;;;8.72;79.30
20930;BME280;21895;47.072;15.132;2023-04-01T00:13:28;95460.00;;;8.54;80.35
20930;BME280;21895;47.072;15.132;2023-04-01T00:15:56;95462.00;;;8.49;80.65
20930;BME280;21895;47.072;15.132;2023-04-01T00:18:23;95465.00;;;8.49;80.57
20930;BME280;21895;47.072;15.132;2023-04-01T00:20:51;95458.00;;;8.65;80.15
20930;BME280;21895;47.072;15.132;2023-04-01T00:23:19;95463.00;;;8.62;80.08
20930;BME280;21895;47.072;15.132;2023-04-01T00:25:46;95455.00;;;8.71;79.63
20930;BME280;21895;47.072;15.132;2023-04-01T00:28:19;95454.00;;;8.74;79.33
20930;BME280;21895;47.072;15.132;2023-04-01T00:30:47;95447.00;;;8.80;79.02
20930;BME280;21895;47.072;15.132;2023-04-01T00:33:14;95444.00;;;8.68;79.28
20930;BME280;21895;47.072;15.132;2023-04-01T00:35:41;95447.00;;;8.70;79.57
20930;BME280;21895;47.072;15.132;2023-04-01T00:38:08;95428.00;;;8.68;79.09
20930;BME280;21895;47.072;15.132;2023-04-01T00:40:39;95433.00;;;8.75;79.05
20930;BME280;21895;47.072;15.132;2023-04-01T00:43:17;95449.00;;;8.90;78.35
20930;BME280;21895;47.072;15.132;2023-04-01T00:45:48;95449.00;;;8.57;79.44
20930;BME280;21895;47.072;15.132;2023-04-01T00:48:21;95447.00;;;8.68;79.20
20930;BME280;21895;47.072;15.132;2023-04-01T00:51:06;95447.00;;;8.62;79.17
20930;BME280;21895;47.072;15.132;2023-04-01T00:53:39;95429.00;;;8.48;79.70
20930;BME280;21895;47.072;15.132;2023-04-01T00:56:28;95421.00;;;8.52;79.52
20930;BME280;21895;47.072;15.132;2023-04-01T00:59:13;95425.00;;;8.56;79.42
20930;BME280;21895;47.072;15.132;2023-04-01T01:01:41;95415.00;;;8.56;79.24
20930;BME280;21895;47.072;15.132;2023-04-01T01:04:32;95408.00;;;8.55;79.10
20930;BME280;21895;47.072;15.132;2023-04-01T01:08:18;95415.00;;;8.66;78.89
20930;BME280;21895;47.072;15.132;2023-04-01T01:10:51;95421.00;;;8.67;77.94
20930;BME280;21895;47.072;15.132;2023-04-01T01:13:36;95411.00;;;8.70;77.67
20930;BME280;21895;47.072;15.132;2023-04-01T01:16:30;95414.00;;;8.59;78.19
20930;BME280;21895;47.072;15.132;2023-04-01T01:24:22;95407.00;;;8.56;78.14
20930;BME280;21895;47.072;15.132;2023-04-01T01:31:11;95413.00;;;8.52;78.63
20930;BME280;21895;47.072;15.132;2023-04-01T01:39:09;95420.00;;;8.78;77.32
20930;BME280;21895;47.072;15.132;2023-04-01T01:41:38;95410.00;;;8.73;77.19
20930;BME280;21895;47.072;15.132;2023-04-01T01:44:08;95410.00;;;8.70;76.96
20930;BME280;21895;47.072;15.132;2023-04-01T01:46:38;95406.00;;;8.77;76.81
20930;BME280;21895;47.072;15.132;2023-04-01T01:49:07;95404.00;;;8.68;77.06
20930;BME280;21895;47.072;15.132;2023-04-01T01:51:36;95400.00;;;8.84;76.32
20930;BME280;21895;47.072;15.132;2023-04-01T01:54:03;95403.00;;;8.57;76.77
20930;BME280;21895;47.072;15.132;2023-04-01T01:56:30;95400.00;;;8.50;77.07
20930;BME280;21895;47.072;15.132;2023-04-01T01:59:08;95388.00;;;8.47;77.45
20930;BME280;21895;47.072;15.132;2023-04-01T02:01:41;95395.00;;;8.50;77.24
20930;BME280;21895;47.072;15.132;2023-04-01T02:04:10;95393.00;;;8.33;77.82
20930;BME280;21895;47.072;15.132;2023-04-01T02:06:43;95386.00;;;8.34;77.84
20930;BME280;21895;47.072;15.132;2023-04-01T02:09:12;95383.00;;;8.22;78.38
20930;BME280;21895;47.072;15.132;2023-04-01T02:11:50;95383.00;;;8.17;78.44
20930;BME280;21895;47.072;15.132;2023-04-01T02:14:26;95389.00;;;8.44;77.67
20930;BME280;21895;47.072;15.132;2023-04-01T02:17:27;95381.00;;;8.13;78.05
20930;BME280;21895;47.072;15.132;2023-04-01T02:20:19;95389.00;;;8.19;78.22
20930;BME280;21895;47.072;15.132;2023-04-01T02:22:55;95385.00;;;8.24;78.05
20930;BME280;21895;47.072;15.132;2023-04-01T02:25:33;95386.00;;;8.24;76.98
20930;BME280;21895;47.072;15.132;2023-04-01T02:28:03;95393.00;;;8.14;76.48
20930;BME280;21895;47.072;15.132;2023-04-01T02:30:35;95395.00;;;8.12;76.77
20930;BME280;21895;47.072;15.132;2023-04-01T02:33:03;95387.00;;;8.01;76.47
20930;BME280;21895;47.072;15.132;2023-04-01T02:35:33;95382.00;;;7.97;77.63
20930;BME280;21895;47.072;15.132;2023-04-01T02:38:01;95381.00;;;8.04;77.62
20930;BME280;21895;47.072;15.132;2023-04-01T02:40:27;95374.00;;;8.03;77.87
20930;BME280;21895;47.072;15.132;2023-04-01T02:42:54;95377.00;;;8.18;77.26
20930;BME280;21895;47.072;15.132;2023-04-01T02:45:21;95384.00;;;7.99;75.64
20930;BME280;21895;47.072;15.132;2023-04-01T02:47:47;95379.00;;;7.91;74.65
20930;BME280;21895;47.072;15.132;2023-04-01T02:50:15;95385.00;;;7.75;75.77
20930;BME280;21895;47.072;15.132;2023-04-01T02:52:41;95384.00;;;7.69;76.59
20930;BME280;21895;47.072;15.132;2023-04-01T02:55:08;95386.00;;;7.72;76.78
20930;BME280;21895;47.072;15.132;2023-04-01T02:57:35;95393.00;;;7.72;76.60
20930;BME280;21895;47.072;15.132;2023-04-01T03:00:03;95394.00;;;7.72;75.98
20930;BME280;21895;47.072;15.132;2023-04-01T03:02:29;95391.00;;;7.63;76.36
20930;BME280;21895;47.072;15.132;2023-04-01T03:04:56;95391.00;;;7.60;76.76
20930;BME280;21895;47.072;15.132;2023-04-01T03:07:24;95385.00;;;7.53;76.70
20930;BME280;21895;47.072;15.132;2023-04-01T03:09:50;95389.00;;;7.59;76.87
20930;BME280;21895;47.072;15.132;2023-04-01T03:12:17;95383.00;;;7.72;76.70
20930;BME280;21895;47.072;15.132;2023-04-01T03:14:43;95384.00;;;7.59;75.21
20930;BME280;21895;47.072;15.132;2023-04-01T03:17:10;95385.00;;;7.43;74.96
20930;BME280;21895;47.072;15.132;2023-04-01T03:19:36;95387.00;;;7.32;74.67
20930;BME280;21895;47.072;15.132;2023-04-01T03:22:03;95395.00;;;7.12;75.28
20930;BME280;21895;47.072;15.132;2023-04-01T03:24:29;95392.00;;;7.07;74.76
20930;BME280;21895;47.072;15.132;2023-04-01T03:26:56;95401.00;;;6.96;75.99
20930;BME280;21895;47.072;15.132;2023-04-01T03:29:22;95397.00;;;7.05;76.55
20930;BME280;21895;47.072;15.132;2023-04-01T03:31:49;95404.00;;;7.12;76.47
20930;BME280;21895;47.072;15.132;2023-04-01T03:34:15;95400.00;;;7.02;76.49
20930;BME280;21895;47.072;15.132;2023-04-01T03:36:42;95397.00;;;6.96;76.65
20930;BME280;21895;47.072;15.132;2023-04-01T03:39:08;95402.00;;;6.95;77.04
20930;BME280;21895;47.072;15.132;2023-04-01T03:41:38;95397.00;;;7.23;78.27
20930;BME280;21895;47.072;15.132;2023-04-01T03:44:05;95392.00;;;7.35;78.73
20930;BME280;21895;47.072;15.132;2023-04-01T03:46:32;95396.00;;;7.41;78.84
20930;BME280;21895;47.072;15.132;2023-04-01T03:48:58;95398.00;;;7.34;77.08
20930;BME280;21895;47.072;15.132;2023-04-01T03:51:25;95407.00;;;7.26;76.83
20930;BME280;21895;47.072;15.132;2023-04-01T03:53:51;95403.00;;;7.14;76.41
20930;BME280;21895;47.072;15.132;2023-04-01T03:56:18;95410.00;;;7.13;76.34
20930;BME280;21895;47.072;15.132;2023-04-01T03:58:44;95409.00;;;7.00;76.89
20930;BME280;21895;47.072;15.132;2023-04-01T04:01:17;95420.00;;;6.98;76.84
20930;BME280;21895;47.072;15.132;2023-04-01T04:03:44;95420.00;;;7.03;77.48
20930;BME280;21895;47.072;15.132;2023-04-01T04:06:13;95425.00;;;7.00;78.27
20930;BME280;21895;47.072;15.132;2023-04-01T04:08:40;95428.00;;;7.11;77.81
20930;BME280;21895;47.072;15.132;2023-04-01T04:11:07;95427.00;;;7.02;77.65
20930;BME280;21895;47.072;15.132;2023-04-01T04:13:34;95424.00;;;7.13;77.77
20930;BME280;21895;47.072;15.132;2023-04-01T04:16:03;95428.00;;;7.30;77.58
20930;BME280;21895;47.072;15.132;2023-04-01T04:18:30;95423.00;;;7.33;77.87
20930;BME280;21895;47.072;15.132;2023-04-01T04:20:56;95431.00;;;7.30;76.69
20930;BME280;21895;47.072;15.132;2023-04-01T04:23:24;95433.00;;;7.01;75.78
20930;BME280;21895;47.072;15.132;2023-04-01T04:26:05;95426.00;;;6.93;76.15
20930;BME280;21895;47.072;15.132;2023-04-01T04:28:33;95435.00;;;6.84;76.74
20930;BME280;21895;47.072;15.132;2023-04-01T04:31:00;95435.00;;;6.80;75.83
20930;BME280;21895;47.072;15.132;2023-04-01T04:33:28;95430.00;;;6.50;75.61
20930;BME280;21895;47.072;15.132;2023-04-01T04:35:59;95440.00;;;6.45;77.31
20930;BME280;21895;47.072;15.132;2023-04-01T04:38:26;95438.00;;;6.52;77.45
20930;BME280;21895;47.072;15.132;2023-04-01T04:40:53;95440.00;;;6.61;77.05
20930;BME280;21895;47.072;15.132;2023-04-01T04:43:20;95438.00;;;6.52;76.08
20930;BME280;21895;47.072;15.132;2023-04-01T04:45:47;95440.00;;;6.48;75.85
20930;BME280;21895;47.072;15.132;2023-04-01T04:48:15;95445.00;;;6.46;76.19
20930;BME280;21895;47.072;15.132;2023-04-01T04:50:50;95446.00;;;6.45;75.92
20930;BME280;21895;47.072;15.132;2023-04-01T04:53:18;95442.00;;;6.38;76.60
20930;BME280;21895;47.072;15.132;2023-04-01T04:55:49;95452.00;;;6.51;77.04
20930;BME280;21895;47.072;15.132;2023-04-01T04:58:16;95437.00;;;6.58;78.23
20930;BME280;21895;47.072;15.132;2023-04-01T05:00:44;95438.00;;;6.75;78.73
20930;BME280;21895;47.072;15.132;2023-04-01T05:03:11;95439.00;;;6.81;77.47
20930;BME280;21895;47.072;15.132;2023-04-01T05:05:39;95437.00;;;6.82;76.63
20930;BME280;21895;47.072;15.132;2023-04-01T05:08:06;95433.00;;;6.70;76.41
20930;BME280;21895;47.072;15.132;2023-04-01T05:10:33;95438.00;;;6.69;77.74
20930;BME280;21895;47.072;15.132;2023-04-01T05:12:59;95434.00;;;6.85;77.11
20930;BME280;21895;47.072;15.132;2023-04-01T05:15:26;95431.00;;;6.87;76.00
20930;BME280;21895;47.072;15.132;2023-04-01T05:17:52;95440.00;;;6.78;75.73
20930;BME280;21895;47.072;15.132;2023-04-01T05:20:19;95432.00;;;6.82;76.42
20930;BME280;21895;47.072;15.132;2023-04-01T05:22:46;95434.00;;;6.80;76.55
20930;BME280;21895;47.072;15.132;2023-04-01T05:25:12;95439.00;;;6.94;77.59
20930;BME280;21895;47.072;15.132;2023-04-01T05:27:39;95437.00;;;7.01;77.63
20930;BME280;21895;47.072;15.132;2023-04-01T05:30:06;95447.00;;;7.10;77.29
20930;BME280;21895;47.072;15.132;2023-04-01T05:32:33;95439.00;;;7.10;77.22
20930;BME280;21895;47.072;15.132;2023-04-01T05:34:59;95447.00;;;7.25;76.68
20930;BME280;21895;47.072;15.132;2023-04-01T05:37:26;95445.00;;;7.25;76.20
20930;BME280;21895;47.072;15.132;2023-04-01T05:39:52;95445.00;;;7.23;75.99
20930;BME280;21895;47.072;15.132;2023-04-01T05:42:19;95441.00;;;7.27;76.19
20930;BME280;21895;47.072;15.132;2023-04-01T05:44:46;95446.00;;;7.39;76.46
20930;BME280;21895;47.072;15.132;2023-04-01T05:47:12;95449.00;;;7.57;76.05
20930;BME280;21895;47.072;15.132;2023-04-01T05:49:39;95441.00;;;7.72;75.65
20930;BME280;21895;47.072;15.132;2023-04-01T05:52:05;95435.00;;;7.91;75.40
20930;BME280;21895;47.072;15.132;2023-04-01T05:54:32;95443.00;;;8.03;75.26
20930;BME280;21895;47.072;15.132;2023-04-01T05:56:59;95439.00;;;8.31;74.73
20930;BME280;21895;47.072;15.132;2023-04-01T05:59:25;95443.00;;;8.37;74.57
20930;BME280;21895;47.072;15.132;2023-04-01T06:01:52;95444.00;;;8.57;74.06
20930;BME280;21895;47.072;15.132;2023-04-01T06:04:19;95449.00;;;8.79;73.25
20930;BME280;21895;47.072;15.132;2023-04-01T06:06:46;95449.00;;;9.02;72.71
20930;BME280;21895;47.072;15.132;2023-04-01T06:09:26;95445.00;;;9.16;72.20
20930;BME280;21895;47.072;15.132;2023-04-01T06:12:51;95445.00;;;9.24;71.85
20930;BME280;21895;47.072;15.132;2023-04-01T06:24:08;95443.00;;;9.45;71.59
20930;BME280;21895;47.072;15.132;2023-04-01T06:33:02;95446.00;;;9.79;71.24
20930;BME280;21895;47.072;15.132;2023-04-01T06:35:56;95437.00;;;10.56;69.81
20930;BME280;21895;47.072;15.132;2023-04-01T06:50:35;95440.00;;;12.47;62.74
20930;BME280;21895;47.072;15.132;2023-04-01T06:53:19;95446.00;;;12.86;58.94
20930;BME280;21895;47.072;15.132;2023-04-01T06:56:15;95444.00;;;12.99;58.52
20930;BME280;21895;47.072;15.132;2023-04-01T06:59:32;95452.00;;;13.00;59.04
20930;BME280;21895;47.072;15.132;2023-04-01T07:02:24;95445.00;;;13.35;57.18
20930;BME280;21895;47.072;15.132;2023-04-01T07:04:55;95456.00;;;13.97;56.78
20930;BME280;21895;47.072;15.132;2023-04-01T07:07:41;95457.00;;;14.42;55.89
20930;BME280;21895;47.072;15.132;2023-04-01T07:11:04;95445.00;;;14.84;54.38
20930;BME280;21895;47.072;15.132;2023-04-01T07:14:45;95444.00;;;15.31;51.21
20930;BME280;21895;47.072;15.132;2023-04-01T07:17:55;95441.00;;;15.64;49.92
20930;BME280;21895;47.072;15.132;2023-04-01T07:20:29;95440.00;;;16.15;47.58
20930;BME280;21895;47.072;15.132;2023-04-01T07:23:02;95443.00;;;16.52;46.46
20930;BME280;21895;47.072;15.132;2023-04-01T07:25:38;95441.00;;;17.25;44.38
20930;BME280;21895;47.072;15.132;2023-04-01T07:28:13;95441.00;;;17.15;43.27
20930;BME280;21895;47.072;15.132;2023-04-01T07:31:17;95438.00;;;17.30;43.97
20930;BME280;21895;47.072;15.132;2023-04-01T07:34:12;95440.00;;;17.21;44.44
20930;BME280;21895;47.072;15.132;2023-04-01T07:49:19;95449.00;;;17.20;40.52
20930;BME280;21895;47.072;15.132;2023-04-01T07:52:04;95449.00;;;16.83;42.67
20930;BME280;21895;47.072;15.132;2023-04-01T07:54:56;95453.00;;;16.92;41.18
20930;BME280;21895;47.072;15.132;2023-04-01T08:02:01;95460.00;;;16.91;40.55
20930;BME280;21895;47.072;15.132;2023-04-01T08:07:13;95463.00;;;17.00;39.36
20930;BME280;21895;47.072;15.132;2023-04-01T08:10:02;95465.00;;;16.96;40.28
20930;BME280;21895;47.072;15.132;2023-04-01T08:19:14;95477.00;;;17.09;41.42
20930;BME280;21895;47.072;15.132;2023-04-01T08:21:52;95478.00;;;17.11;41.22
20930;BME280;21895;47.072;15.132;2023-04-01T08:24:38;95472.00;;;17.17;39.62
20930;BME280;21895;47.072;15.132;2023-04-01T08:28:26;95478.00;;;17.20;38.85
20930;BME280;21895;47.072;15.132;2023-04-01T08:31:16;95471.00;;;16.72;39.47
20930;BME280;21895;47.072;15.132;2023-04-01T08:33:47;95474.00;;;16.31;39.82
20930;BME280;21895;47.072;15.132;2023-04-01T08:36:33;95476.00;;;15.52;39.84
20930;BME280;21895;47.072;15.132;2023-04-01T08:39:17;95479.00;;;15.52;40.93
20930;BME280;21895;47.072;15.132;2023-04-01T08:43:45;95481.00;;;15.62;41.94
20930;BME280;21895;47.072;15.132;2023-04-01T08:54:07;95484.00;;;15.28;40.44
20930;BME280;21895;47.072;15.132;2023-04-01T09:04:39;95489.00;;;16.18;39.08
20930;BME280;21895;47.072;15.132;2023-04-01T09:21:33;95504.00;;;16.90;37.64
20930;BME280;21895;47.072;15.132;2023-04-01T09:28:28;95492.00;;;17.54;35.97
20930;BME280;21895;47.072;15.132;2023-04-01T09:31:24;95503.00;;;18.00;35.59
20930;BME280;21895;47.072;15.132;2023-04-01T09:34:34;95501.00;;;17.62;34.73
20930;BME280;21895;47.072;15.132;2023-04-01T09:46:23;95512.00;;;16.00;37.63
20930;BME280;21895;47.072;15.132;2023-04-01T09:49:34;95509.00;;;16.06;38.45
20930;BME280;21895;47.072;15.132;2023-04-01T09:55:28;95526.00;;;15.59;38.22
20930;BME280;21895;47.072;15.132;2023-04-01T10:11:02;95525.00;;;15.28;39.83
20930;BME280;21895;47.072;15.132;2023-04-01T10:18:41;95522.00;;;15.57;39.00
20930;BME280;21895;47.072;15.132;2023-04-01T10:22:04;95539.00;;;16.11;39.18
20930;BME280;21895;47.072;15.132;2023-04-01T10:25:05;95536.00;;;16.02;37.45
20930;BME280;21895;47.072;15.132;2023-04-01T10:28:02;95534.00;;;15.79;37.94
20930;BME280;21895;47.072;15.132;2023-04-01T10:36:59;95527.00;;;16.22;38.18
20930;BME280;21895;47.072;15.132;2023-04-01T10:50:04;95523.00;;;16.40;36.80
20930;BME280;21895;47.072;15.132;2023-04-01T10:54:42;95526.00;;;17.21;35.44
20930;BME280;21895;47.072;15.132;2023-04-01T10:58:19;95523.00;;;17.02;34.51
20930;BME280;21895;47.072;15.132;2023-04-01T11:08:33;95520.00;;;17.41;35.05
20930;BME280;21895;47.072;15.132;2023-04-01T11:21:07;95516.00;;;16.75;35.86
20930;BME280;21895;47.072;15.132;2023-04-01T11:24:54;95507.00;;;16.75;35.55
20930;BME280;21895;47.072;15.132;2023-04-01T11:32:02;95511.00;;;16.70;35.58
20930;BME280;21895;47.072;15.132;2023-04-01T11:39:17;95501.00;;;16.00;35.57
20930;BME280;21895;47.072;15.132;2023-04-01T11:45:21;95515.00;;;15.79;37.22
20930;BME280;21895;47.072;15.132;2023-04-01T11:53:12;95506.00;;;16.81;35.47
20930;BME280;21895;47.072;15.132;2023-04-01T12:07:11;95504.00;;;17.50;35.18
20930;BME280;21895;47.072;15.132;2023-04-01T12:10:21;95494.00;;;16.73;35.01
20930;BME280;21895;47.072;15.132;2023-04-01T12:13:11;95503.00;;;16.86;35.62
20930;BME280;21895;47.072;15.132;2023-04-01T12:48:06;95494.00;;;17.13;33.83
20930;BME280;21895;47.072;15.132;2023-04-01T12:55:54;95471.00;;;16.96;33.63
20930;BME280;21895;47.072;15.132;2023-04-01T13:08:13;95469.00;;;17.35;33.44
20930;BME280;21895;47.072;15.132;2023-04-01T13:14:08;95462.00;;;17.25;32.78
20930;BME280;21895;47.072;15.132;2023-04-01T13:18:54;95461.00;;;17.73;31.80
20930;BME280;21895;47.072;15.132;2023-04-01T13:24:28;95451.00;;;18.09;31.71
20930;BME280;21895;47.072;15.132;2023-04-01T13:27:44;95449.00;;;18.49;31.36
20930;BME280;21895;47.072;15.132;2023-04-01T13:30:37;95453.00;;;18.07;30.84
20930;BME280;21895;47.072;15.132;2023-04-01T13:33:45;95455.00;;;17.76;30.50
20930;BME280;21895;47.072;15.132;2023-04-01T13:37:33;95431.00;;;18.10;31.23
20930;BME280;21895;47.072;15.132;2023-04-01T13:47:27;95434.00;;;18.06;29.54
20930;BME280;21895;47.072;15.132;2023-04-01T13:56:02;95422.00;;;18.01;30.18
20930;BME280;21895;47.072;15.132;2023-04-01T14:07:05;95399.00;;;17.16;30.69
20930;BME280;21895;47.072;15.132;2023-04-01T14:10:50;95398.00;;;17.64;30.08
20930;BME280;21895;47.072;15.132;2023-04-01T14:16:07;95391.00;;;17.88;30.55
20930;BME280;21895;47.072;15.132;2023-04-01T14:19:57;95384.00;;;17.89;29.98
20930;BME280;21895;47.072;15.132;2023-04-01T14:23:07;95381.00;;;17.89;30.04
20930;BME280;21895;47.072;15.132;2023-04-01T14:33:38;95368.00;;;18.31;29.86
20930;BME280;21895;47.072;15.132;2023-04-01T14:40:20;95369.00;;;18.17;28.96
20930;BME280;21895;47.072;15.132;2023-04-01T14:44:45;95362.00;;;17.68;29.73
20930;BME280;21895;47.072;15.132;2023-04-01T14:53:43;95360.00;;;17.63;30.03
20930;BME280;21895;47.072;15.132;2023-04-01T14:56:11;95361.00;;;17.84;29.66
20930;BME280;21895;47.072;15.132;2023-04-01T14:58:50;95350.00;;;18.05;29.91
20930;BME280;21895;47.072;15.132;2023-04-01T15:28:49;95356.00;;;18.21;30.99
20930;BME280;21895;47.072;15.132;2023-04-01T15:46:57;95351.00;;;17.47;32.49
20930;BME280;21895;47.072;15.132;2023-04-01T15:50:38;95352.00;;;17.41;32.95
20930;BME280;21895;47.072;15.132;2023-04-01T15:53:25;95359.00;;;17.25;33.23
20930;BME280;21895;47.072;15.132;2023-04-01T15:58:00;95346.00;;;17.02;33.41
20930;BME280;21895;47.072;15.132;2023-04-01T16:07:38;95352.00;;;17.10;34.15
20930;BME280;21895;47.072;15.132;2023-04-01T16:12:02;95358.00;;;17.03;34.69
20930;BME280;21895;47.072;15.132;2023-04-01T16:20:02;95367.00;;;16.82;35.35
20930;BME280;21895;47.072;15.132;2023-04-01T16:23:00;95383.00;;;16.92;36.16
20930;BME280;21895;47.072;15.132;2023-04-01T16:25:44;95374.00;;;16.89;36.78
20930;BME280;21895;47.072;15.132;2023-04-01T16:40:57;95383.00;;;16.52;37.39
20930;BME280;21895;47.072;15.132;2023-04-01T16:43:51;95390.00;;;15.78;39.44
20930;BME280;21895;47.072;15.132;2023-04-01T16:47:30;95405.00;;;15.65;39.90
20930;BME280;21895;47.072;15.132;2023-04-01T16:50:42;95412.00;;;15.49;42.73
20930;BME280;21895;47.072;15.132;2023-04-01T16:54:28;95417.00;;;15.28;44.58
20930;BME280;21895;47.072;15.132;2023-04-01T16:57:12;95419.00;;;15.17;43.30
20930;BME280;21895;47.072;15.132;2023-04-01T17:03:29;95431.00;;;15.13;46.87
20930;BME280;21895;47.072;15.132;2023-04-01T17:06:37;95430.00;;;14.83;49.01
20930;BME280;21895;47.072;15.132;2023-04-01T17:11:00;95437.00;;;14.58;50.76
20930;BME280;21895;47.072;15.132;2023-04-01T17:15:34;95443.00;;;14.38;49.87
20930;BME280;21895;47.072;15.132;2023-04-01T17:28:24;95460.00;;;14.08;49.37
20930;BME280;21895;47.072;15.132;2023-04-01T17:37:40;95465.00;;;13.80;48.97
20930;BME280;21895;47.072;15.132;2023-04-01T17:48:03;95493.00;;;13.67;50.75
20930;BME280;21895;47.072;15.132;2023-04-01T17:53:34;95502.00;;;13.46;51.50
20930;BME280;21895;47.072;15.132;2023-04-01T17:57:56;95525.00;;;13.67;46.47
20930;BME280;21895;47.072;15.132;2023-04-01T18:01:40;95525.00;;;13.74;46.82
20930;BME280;21895;47.072;15.132;2023-04-01T18:12:15;95546.00;;;13.98;47.90
20930;BME280;21895;47.072;15.132;2023-04-01T18:21:45;95563.00;;;13.78;49.21
20930;BME280;21895;47.072;15.132;2023-04-01T18:24:33;95571.00;;;13.74;50.24
20930;BME280;21895;47.072;15.132;2023-04-01T18:27:41;95571.00;;;13.66;50.69
20930;BME280;21895;47.072;15.132;2023-04-01T18:30:36;95580.00;;;13.56;50.86
20930;BME280;21895;47.072;15.132;2023-04-01T18:33:26;95584.00;;;13.51;53.36
20930;BME280;21895;47.072;15.132;2023-04-01T18:36:51;95578.00;;;13.36;54.89
20930;BME280;21895;47.072;15.132;2023-04-01T18:39:46;95593.00;;;13.14;58.09
20930;BME280;21895;47.072;15.132;2023-04-01T18:49:33;95602.00;;;12.77;58.65
20930;BME280;21895;47.072;15.132;2023-04-01T18:53:40;95608.00;;;12.55;63.95
20930;BME280;21895;47.072;15.132;2023-04-01T18:56:22;95614.00;;;12.47;60.71
20930;BME280;21895;47.072;15.132;2023-04-01T19:05:19;95615.00;;;12.37;63.65
20930;BME280;21895;47.072;15.132;2023-04-01T19:07:52;95626.00;;;12.54;60.66
20930;BME280;21895;47.072;15.132;2023-04-01T19:11:43;95629.00;;;12.41;61.74
20930;BME280;21895;47.072;15.132;2023-04-01T19:18:08;95639.00;;;12.47;60.99
20930;BME280;21895;47.072;15.132;2023-04-01T19:20:57;95631.00;;;12.36;63.59
20930;BME280;21895;47.072;15.132;2023-04-01T19:24:25;95639.00;;;12.17;64.75
20930;BME280;21895;47.072;15.132;2023-04-01T19:27:48;95641.00;;;12.10;63.69
20930;BME280;21895;47.072;15.132;2023-04-01T19:30:54;95642.00;;;12.10;63.49
20930;BME280;21895;47.072;15.132;2023-04-01T19:33:59;95646.00;;;12.02;63.51
20930;BME280;21895;47.072;15.132;2023-04-01T19:37:08;95652.00;;;12.16;64.42
20930;BME280;21895;47.072;15.132;2023-04-01T19:50:47;95666.00;;;12.03;65.46
20930;BME280;21895;47.072;15.132;2023-04-01T19:55:29;95668.00;;;12.01;65.39
20930;BME280;21895;47.072;15.132;2023-04-01T20:00:42;95680.00;;;11.70;67.21
20930;BME280;21895;47.072;15.132;2023-04-01T20:05:38;95700.00;;;11.83;66.03
20930;BME280;21895;47.072;15.132;2023-04-01T20:10:07;95696.00;;;11.92;64.84
20930;BME280;21895;47.072;15.132;2023-04-01T20:14:40;95703.00;;;11.96;63.84
20930;BME280;21895;47.072;15.132;2023-04-01T20:18:23;95708.00;;;11.71;66.20
20930;BME280;21895;47.072;15.132;2023-04-01T20:21:00;95709.00;;;12.05;62.24
20930;BME280;21895;47.072;15.132;2023-04-01T20:23:45;95714.00;;;11.81;64.05
20930;BME280;21895;47.072;15.132;2023-04-01T20:26:23;95719.00;;;11.69;64.30
20930;BME280;21895;47.072;15.132;2023-04-01T20:29:56;95714.00;;;11.80;64.88
20930;BME280;21895;47.072;15.132;2023-04-01T20:50:39;95732.00;;;11.30;66.59
20930;BME280;21895;47.072;15.132;2023-04-01T21:10:46;95738.00;;;11.05;64.69
20930;BME280;21895;47.072;15.132;2023-04-01T21:20:22;95744.00;;;10.68;66.16
20930;BME280;21895;47.072;15.132;2023-04-01T21:25:30;95759.00;;;10.48;66.82
20930;BME280;21895;47.072;15.132;2023-04-01T21:28:38;95764.00;;;10.27;66.83
20930;BME280;21895;47.072;15.132;2023-04-01T21:44:18;95775.00;;;10.51;60.52
20930;BME280;21895;47.072;15.132;2023-04-01T21:48:53;95775.00;;;10.48;60.90
20930;BME280;21895;47.072;15.132;2023-04-01T21:52:16;95788.00;;;10.49;61.26
20930;BME280;21895;47.072;15.132;2023-04-01T22:04:56;95791.00;;;10.34;61.38
20930;BME280;21895;47.072;15.132;2023-04-01T22:21:05;95791.00;;;10.57;59.55
20930;BME280;21895;47.072;15.132;2023-04-01T22:24:29;95799.00;;;10.45;60.23
20930;BME280;21895;47.072;15.132;2023-04-01T22:27:22;95801.00;;;10.34;60.65
20930;BME280;21895;47.072;15.132;2023-04-01T22:31:10;95800.00;;;10.38;60.42
20930;BME280;21895;47.072;15.132;2023-04-01T22:37:07;95800.00;;;10.32;60.10
20930;BME280;21895;47.072;15.132;2023-04-01T22:40:16;95800.00;;;10.36;60.35
20930;BME280;21895;47.072;15.132;2023-04-01T22:43:04;95798.00;;;10.33;60.33
20930;BME280;21895;47.072;15.132;2023-04-01T22:50:50;95799.00;;;10.32;60.60
20930;BME280;21895;47.072;15.132;2023-04-01T22:54:29;95808.00;;;10.33;59.83
20930;BME280;21895;47.072;15.132;2023-04-01T22:57:55;95806.00;;;10.15;63.19
20930;BME280;21895;47.072;15.132;2023-04-01T23:00:49;95800.00;;;9.96;65.05
20930;BME280;21895;47.072;15.132;2023-04-01T23:03:31;95808.00;;;9.72;65.72
20930;BME280;21895;47.072;15.132;2023-04-01T23:06:01;95800.00;;;9.62;67.40
20930;BME280;21895;47.072;15.132;2023-04-01T23:12:02;95809.00;;;9.57;67.59
20930;BME280;21895;47.072;15.132;2023-04-01T23:15:00;95811.00;;;9.59;67.15
20930;BME280;21895;47.072;15.132;2023-04-01T23:19:01;95812.00;;;9.41;67.80
20930;BME280;21895;47.072;15.132;2023-04-01T23:21:41;95814.00;;;9.13;68.70
20930;BME280;21895;47.072;15.132;2023-04-01T23:24:33;95818.00;;;9.07;69.21
20930;BME280;21895;47.072;15.132;2023-04-01T23:27:12;95818.00;;;9.06;69.90
20930;BME280;21895;47.072;15.132;2023-04-01T23:29:43;95828.00;;;9.21;69.82
20930;BME280;21895;47.072;15.132;2023-04-01T23:32:19;95826.00;;;9.39;69.09